sensor_id;sensor_type;location;lat;lon;timestamp;P1;durP1;ratioP1;P2;durP2;ratioP2
45534;SDS011;35892;48.798;9.698;2022-12-31T00:00:26;2.08;;;1.20;;
45534;SDS011;35892;48.798;9.698;2022-12-31T00:02:53;1.40;;;1.10;;
45534;SDS011;35892;48.798;9.698;2022-12-31T00:05:22;3.13;;;1.42;;
45534;SDS011;35892;48.798;9.698;2022-12-31T00:07:54;4.13;;;1.48;;
45534;SDS011;35892;48.798;9.698;2022-12-31T00:10:23;1.23;;;1.02;;
45534;SDS011;35892;48.798;9.698;2022-12-31T00:12:50;1.67;;;0.90;;
45534;SDS011;35892;48.798;9.698;2022-12-31T00:15:19;0.98;;;0.85;;
45534;SDS011;35892;48.798;9.698;2022-12-31T00:17:46;3.35;;;1.20;;
45534;SDS011;35892;48.798;9.698;2022-12-31T00:20:13;2.85;;;1.77;;
45534;SDS011;35892;48.798;9.698;2022-12-31T00:22:42;2.05;;;1.58;;
45534;SDS011;35892;48.798;9.698;2022-12-31T00:25:11;4.35;;;1.20;;
45534;SDS011;35892;48.798;9.698;2022-12-31T00:27:40;1.83;;;1.20;;
45534;SDS011;35892;48.798;9.698;2022-12-31T00:30:10;5.80;;;1.00;;
45534;SDS011;35892;48.798;9.698;2022-12-31T00:32:40;1.67;;;0.85;;
45534;SDS011;35892;48.798;9.698;2022-12-31T00:35:07;1.58;;;0.90;;
45534;SDS011;35892;48.798;9.698;2022-12-31T00:37:36;1.25;;;0.80;;
45534;SDS011;35892;48.798;9.698;2022-12-31T00:40:03;1.58;;;0.82;;
45534;SDS011;35892;48.798;9.698;2022-12-31T00:42:30;4.00;;;0.80;;
45534;SDS011;35892;48.798;9.698;2022-12-31T00:45:00;1.15;;;0.68;;
45534;SDS011;35892;48.798;9.698;2022-12-31T00:47:26;0.80;;;0.60;;
45534;SDS011;35892;48.798;9.698;2022-12-31T00:49:53;3.47;;;0.80;;
45534;SDS011;35892;48.798;9.698;2022-12-31T00:52:24;2.25;;;0.90;;
45534;SDS011;35892;48.798;9.698;2022-12-31T00:54:53;1.50;;;0.70;;
45534;SDS011;35892;48.798;9.698;2022-12-31T00:57:22;1.40;;;0.80;;
45534;SDS011;35892;48.798;9.698;2022-12-31T00:59:51;2.05;;;0.90;;
45534;SDS011;35892;48.798;9.698;2022-12-31T01:02:18;1.17;;;0.60;;
45534;SDS011;35892;48.798;9.698;2022-12-31T01:04:48;1.38;;;0.95;;
45534;SDS011;35892;48.798;9.698;2022-12-31T01:07:14;2.25;;;0.70;;
45534;SDS011;35892;48.798;9.698;2022-12-31T01:09:41;2.50;;;0.50;;
45534;SDS011;35892;48.798;9.698;2022-12-31T01:12:10;2.35;;;0.68;;
45534;SDS011;35892;48.798;9.698;2022-12-31T01:14:37;0.98;;;0.43;;
45534;SDS011;35892;48.798;9.698;2022-12-31T01:17:04;0.95;;;0.40;;
45534;SDS011;35892;48.798;9.698;2022-12-31T01:19:31;1.23;;;0.40;;
45534;SDS011;35892;48.798;9.698;2022-12-31T01:21:57;1.33;;;0.40;;
45534;SDS011;35892;48.798;9.698;2022-12-31T01:24:26;1.40;;;0.57;;
45534;SDS011;35892;48.798;9.698;2022-12-31T01:26:53;0.30;;;0.30;;
45534;SDS011;35892;48.798;9.698;2022-12-31T01:29:22;0.43;;;0.20;;
45534;SDS011;35892;48.798;9.698;2022-12-31T01:31:49;0.30;;;0.20;;
45534;SDS011;35892;48.798;9.698;2022-12-31T01:34:16;0.43;;;0.35;;
45534;SDS011;35892;48.798;9.698;2022-12-31T01:36:43;0.60;;;0.57;;
45534;SDS011;35892;48.798;9.698;2022-12-31T01:39:10;0.63;;;0.28;;
45534;SDS011;35892;48.798;9.698;2022-12-31T01:41:43;0.30;;;0.30;;
45534;SDS011;35892;48.798;9.698;2022-12-31T01:51:52;0.50;;;0.38;;
45534;SDS011;35892;48.798;9.698;2022-12-31T01:54:42;0.32;;;0.28;;
45534;SDS011;35892;48.798;9.698;2022-12-31T01:57:13;1.13;;;0.60;;
45534;SDS011;35892;48.798;9.698;2022-12-31T01:59:42;0.73;;;0.30;;
45534;SDS011;35892;48.798;9.698;2022-12-31T02:02:10;0.40;;;0.30;;
45534;SDS011;35892;48.798;9.698;2022-12-31T02:04:38;0.30;;;0.20;;
45534;SDS011;35892;48.798;9.698;2022-12-31T02:07:07;0.50;;;0.20;;
45534;SDS011;35892;48.798;9.698;2022-12-31T02:09:35;0.60;;;0.40;;
45534;SDS011;35892;48.798;9.698;2022-12-31T02:12:08;2.05;;;0.40;;
45534;SDS011;35892;48.798;9.698;2022-12-31T02:14:39;0.73;;;0.40;;
45534;SDS011;35892;48.798;9.698;2022-12-31T02:31:43;0.60;;;0.50;;
45534;SDS011;35892;48.798;9.698;2022-12-31T02:34:26;0.35;;;0.28;;
45534;SDS011;35892;48.798;9.698;2022-12-31T02:36:59;1.15;;;0.40;;
45534;SDS011;35892;48.798;9.698;2022-12-31T02:39:32;1.02;;;0.32;;
45534;SDS011;35892;48.798;9.698;2022-12-31T02:42:05;0.80;;;0.32;;
45534;SDS011;35892;48.798;9.698;2022-12-31T02:44:33;2.85;;;0.40;;
45534;SDS011;35892;48.798;9.698;2022-12-31T02:57:29;0.35;;;0.25;;
45534;SDS011;35892;48.798;9.698;2022-12-31T03:00:13;0.50;;;0.40;;
45534;SDS011;35892;48.798;9.698;2022-12-31T03:03:00;0.60;;;0.40;;
45534;SDS011;35892;48.798;9.698;2022-12-31T03:05:29;3.03;;;0.40;;
45534;SDS011;35892;48.798;9.698;2022-12-31T03:08:00;0.43;;;0.28;;
45534;SDS011;35892;48.798;9.698;2022-12-31T03:10:26;1.85;;;0.40;;
45534;SDS011;35892;48.798;9.698;2022-12-31T03:12:56;2.10;;;0.32;;
45534;SDS011;35892;48.798;9.698;2022-12-31T03:15:24;0.30;;;0.25;;
45534;SDS011;35892;48.798;9.698;2022-12-31T03:23:31;0.93;;;0.20;;
45534;SDS011;35892;48.798;9.698;2022-12-31T03:26:00;1.38;;;0.30;;
45534;SDS011;35892;48.798;9.698;2022-12-31T03:28:37;0.68;;;0.28;;
45534;SDS011;35892;48.798;9.698;2022-12-31T03:31:05;0.50;;;0.20;;
45534;SDS011;35892;48.798;9.698;2022-12-31T03:33:36;1.02;;;0.20;;
45534;SDS011;35892;48.798;9.698;2022-12-31T03:36:09;1.10;;;0.30;;
45534;SDS011;35892;48.798;9.698;2022-12-31T03:38:38;0.75;;;0.22;;
45534;SDS011;35892;48.798;9.698;2022-12-31T03:41:05;1.17;;;0.50;;
45534;SDS011;35892;48.798;9.698;2022-12-31T03:43:34;0.80;;;0.30;;
45534;SDS011;35892;48.798;9.698;2022-12-31T03:46:01;0.63;;;0.25;;
45534;SDS011;35892;48.798;9.698;2022-12-31T03:48:30;0.90;;;0.40;;
45534;SDS011;35892;48.798;9.698;2022-12-31T03:50:59;0.60;;;0.30;;
45534;SDS011;35892;48.798;9.698;2022-12-31T03:53:26;0.38;;;0.20;;
45534;SDS011;35892;48.798;9.698;2022-12-31T03:55:53;1.38;;;0.30;;
45534;SDS011;35892;48.798;9.698;2022-12-31T03:58:22;0.57;;;0.30;;
45534;SDS011;35892;48.798;9.698;2022-12-31T04:00:49;1.50;;;0.20;;
45534;SDS011;35892;48.798;9.698;2022-12-31T04:03:18;1.15;;;0.28;;
45534;SDS011;35892;48.798;9.698;2022-12-31T04:05:50;2.40;;;0.30;;
45534;SDS011;35892;48.798;9.698;2022-12-31T04:08:20;0.52;;;0.28;;
45534;SDS011;35892;48.798;9.698;2022-12-31T04:10:47;0.95;;;0.30;;
45534;SDS011;35892;48.798;9.698;2022-12-31T04:13:14;0.60;;;0.32;;
45534;SDS011;35892;48.798;9.698;2022-12-31T04:15:41;0.30;;;0.30;;
45534;SDS011;35892;48.798;9.698;2022-12-31T04:18:08;0.70;;;0.35;;
45534;SDS011;35892;48.798;9.698;2022-12-31T04:20:38;0.88;;;0.20;;
45534;SDS011;35892;48.798;9.698;2022-12-31T04:23:04;0.40;;;0.30;;
45534;SDS011;35892;48.798;9.698;2022-12-31T04:25:31;0.73;;;0.10;;
45534;SDS011;35892;48.798;9.698;2022-12-31T04:27:58;0.40;;;0.20;;
45534;SDS011;35892;48.798;9.698;2022-12-31T04:30:27;1.10;;;0.30;;
45534;SDS011;35892;48.798;9.698;2022-12-31T04:32:54;0.77;;;0.20;;
45534;SDS011;35892;48.798;9.698;2022-12-31T04:35:20;0.25;;;0.10;;
45534;SDS011;35892;48.798;9.698;2022-12-31T04:37:47;1.83;;;0.28;;
45534;SDS011;35892;48.798;9.698;2022-12-31T04:40:14;0.50;;;0.30;;
45534;SDS011;35892;48.798;9.698;2022-12-31T04:42:40;1.27;;;0.30;;
45534;SDS011;35892;48.798;9.698;2022-12-31T04:45:10;0.38;;;0.20;;
45534;SDS011;35892;48.798;9.698;2022-12-31T04:47:39;0.52;;;0.32;;
45534;SDS011;35892;48.798;9.698;2022-12-31T04:50:08;0.63;;;0.40;;
45534;SDS011;35892;48.798;9.698;2022-12-31T04:52:34;0.80;;;0.20;;
45534;SDS011;35892;48.798;9.698;2022-12-31T04:55:08;0.43;;;0.20;;
45534;SDS011;35892;48.798;9.698;2022-12-31T04:57:37;0.38;;;0.30;;
45534;SDS011;35892;48.798;9.698;2022-12-31T05:00:04;0.57;;;0.40;;
45534;SDS011;35892;48.798;9.698;2022-12-31T05:02:31;0.52;;;0.20;;
45534;SDS011;35892;48.798;9.698;2022-12-31T05:05:01;0.75;;;0.22;;
45534;SDS011;35892;48.798;9.698;2022-12-31T05:07:27;0.52;;;0.20;;
45534;SDS011;35892;48.798;9.698;2022-12-31T05:09:54;0.60;;;0.20;;
45534;SDS011;35892;48.798;9.698;2022-12-31T05:12:21;0.38;;;0.20;;
45534;SDS011;35892;48.798;9.698;2022-12-31T05:14:50;0.20;;;0.20;;
45534;SDS011;35892;48.798;9.698;2022-12-31T05:17:16;0.85;;;0.22;;
45534;SDS011;35892;48.798;9.698;2022-12-31T05:19:48;0.47;;;0.20;;
45534;SDS011;35892;48.798;9.698;2022-12-31T05:22:16;0.60;;;0.20;;
45534;SDS011;35892;48.798;9.698;2022-12-31T05:24:58;0.22;;;0.10;;
45534;SDS011;35892;48.798;9.698;2022-12-31T05:27:28;0.43;;;0.20;;
45534;SDS011;35892;48.798;9.698;2022-12-31T05:30:00;0.70;;;0.20;;
45534;SDS011;35892;48.798;9.698;2022-12-31T05:32:32;0.40;;;0.30;;
45534;SDS011;35892;48.798;9.698;2022-12-31T05:35:02;0.28;;;0.20;;
45534;SDS011;35892;48.798;9.698;2022-12-31T05:37:32;0.38;;;0.10;;
45534;SDS011;35892;48.798;9.698;2022-12-31T05:40:01;0.73;;;0.20;;
45534;SDS011;35892;48.798;9.698;2022-12-31T05:42:31;1.13;;;0.20;;
45534;SDS011;35892;48.798;9.698;2022-12-31T05:44:58;0.73;;;0.20;;
45534;SDS011;35892;48.798;9.698;2022-12-31T05:47:25;1.45;;;0.70;;
45534;SDS011;35892;48.798;9.698;2022-12-31T05:49:54;0.82;;;0.30;;
45534;SDS011;35892;48.798;9.698;2022-12-31T05:52:21;1.40;;;1.20;;
45534;SDS011;35892;48.798;9.698;2022-12-31T05:54:49;0.65;;;0.22;;
45534;SDS011;35892;48.798;9.698;2022-12-31T05:57:16;0.55;;;0.30;;
45534;SDS011;35892;48.798;9.698;2022-12-31T05:59:45;1.08;;;0.40;;
45534;SDS011;35892;48.798;9.698;2022-12-31T06:02:12;0.50;;;0.30;;
45534;SDS011;35892;48.798;9.698;2022-12-31T06:04:44;1.65;;;0.20;;
45534;SDS011;35892;48.798;9.698;2022-12-31T06:07:13;0.52;;;0.20;;
45534;SDS011;35892;48.798;9.698;2022-12-31T06:09:40;0.30;;;0.30;;
45534;SDS011;35892;48.798;9.698;2022-12-31T06:12:07;0.30;;;0.30;;
45534;SDS011;35892;48.798;9.698;2022-12-31T06:14:37;1.40;;;0.10;;
45534;SDS011;35892;48.798;9.698;2022-12-31T06:17:11;0.32;;;0.20;;
45534;SDS011;35892;48.798;9.698;2022-12-31T06:19:37;0.25;;;0.10;;
45534;SDS011;35892;48.798;9.698;2022-12-31T06:22:04;0.20;;;0.10;;
45534;SDS011;35892;48.798;9.698;2022-12-31T06:24:31;0.73;;;0.30;;
45534;SDS011;35892;48.798;9.698;2022-12-31T06:27:00;0.30;;;0.20;;
45534;SDS011;35892;48.798;9.698;2022-12-31T06:29:27;0.60;;;0.20;;
45534;SDS011;35892;48.798;9.698;2022-12-31T06:31:53;0.88;;;0.32;;
45534;SDS011;35892;48.798;9.698;2022-12-31T06:34:20;0.52;;;0.10;;
45534;SDS011;35892;48.798;9.698;2022-12-31T06:36:49;0.20;;;0.03;;
45534;SDS011;35892;48.798;9.698;2022-12-31T06:39:16;0.30;;;0.20;;
45534;SDS011;35892;48.798;9.698;2022-12-31T06:41:42;0.20;;;0.20;;
45534;SDS011;35892;48.798;9.698;2022-12-31T06:44:09;0.30;;;0.10;;
45534;SDS011;35892;48.798;9.698;2022-12-31T06:46:39;1.00;;;0.20;;
45534;SDS011;35892;48.798;9.698;2022-12-31T06:49:07;0.68;;;0.20;;
45534;SDS011;35892;48.798;9.698;2022-12-31T06:51:33;0.25;;;0.20;;
45534;SDS011;35892;48.798;9.698;2022-12-31T06:54:00;0.30;;;0.10;;
45534;SDS011;35892;48.798;9.698;2022-12-31T06:56:27;0.30;;;0.20;;
45534;SDS011;35892;48.798;9.698;2022-12-31T06:59:00;0.47;;;0.28;;
45534;SDS011;35892;48.798;9.698;2022-12-31T07:04:38;0.65;;;0.65;;
45534;SDS011;35892;48.798;9.698;2022-12-31T07:10:16;0.60;;;0.52;;
45534;SDS011;35892;48.798;9.698;2022-12-31T07:13:14;0.45;;;0.40;;
45534;SDS011;35892;48.798;9.698;2022-12-31T07:15:59;0.70;;;0.30;;
45534;SDS011;35892;48.798;9.698;2022-12-31T07:21:13;0.90;;;0.40;;
45534;SDS011;35892;48.798;9.698;2022-12-31T07:23:41;0.85;;;0.50;;
45534;SDS011;35892;48.798;9.698;2022-12-31T07:34:18;1.45;;;0.60;;
45534;SDS011;35892;48.798;9.698;2022-12-31T07:37:58;2.08;;;0.65;;
45534;SDS011;35892;48.798;9.698;2022-12-31T07:42:37;3.38;;;1.23;;
45534;SDS011;35892;48.798;9.698;2022-12-31T07:45:27;3.70;;;1.60;;
45534;SDS011;35892;48.798;9.698;2022-12-31T07:48:21;4.43;;;0.93;;
45534;SDS011;35892;48.798;9.698;2022-12-31T07:50:50;1.92;;;0.63;;
45534;SDS011;35892;48.798;9.698;2022-12-31T07:53:20;1.90;;;0.70;;
45534;SDS011;35892;48.798;9.698;2022-12-31T07:55:48;1.58;;;0.85;;
45534;SDS011;35892;48.798;9.698;2022-12-31T08:01:14;1.48;;;0.90;;
45534;SDS011;35892;48.798;9.698;2022-12-31T08:06:18;3.75;;;1.48;;
45534;SDS011;35892;48.798;9.698;2022-12-31T08:14:20;1.48;;;1.10;;
45534;SDS011;35892;48.798;9.698;2022-12-31T08:16:49;1.52;;;1.10;;
45534;SDS011;35892;48.798;9.698;2022-12-31T08:19:27;5.03;;;1.70;;
45534;SDS011;35892;48.798;9.698;2022-12-31T08:22:13;1.73;;;1.30;;
45534;SDS011;35892;48.798;9.698;2022-12-31T08:30:47;1.67;;;0.85;;
45534;SDS011;35892;48.798;9.698;2022-12-31T08:50:25;0.70;;;0.50;;
45534;SDS011;35892;48.798;9.698;2022-12-31T08:52:52;1.52;;;0.20;;
45534;SDS011;35892;48.798;9.698;2022-12-31T08:55:19;0.47;;;0.30;;
45534;SDS011;35892;48.798;9.698;2022-12-31T09:00:22;0.45;;;0.30;;
45534;SDS011;35892;48.798;9.698;2022-12-31T09:17:26;1.25;;;0.55;;
45534;SDS011;35892;48.798;9.698;2022-12-31T09:20:16;0.30;;;0.28;;
45534;SDS011;35892;48.798;9.698;2022-12-31T09:22:48;1.08;;;0.40;;
45534;SDS011;35892;48.798;9.698;2022-12-31T09:25:16;0.32;;;0.30;;
45534;SDS011;35892;48.798;9.698;2022-12-31T09:30:26;0.60;;;0.50;;
45534;SDS011;35892;48.798;9.698;2022-12-31T09:33:00;0.70;;;0.55;;
45534;SDS011;35892;48.798;9.698;2022-12-31T09:55:44;0.20;;;0.20;;
45534;SDS011;35892;48.798;9.698;2022-12-31T10:04:38;0.73;;;0.40;;
45534;SDS011;35892;48.798;9.698;2022-12-31T10:24:22;0.73;;;0.25;;
45534;SDS011;35892;48.798;9.698;2022-12-31T10:29:45;1.30;;;0.52;;
45534;SDS011;35892;48.798;9.698;2022-12-31T11:00:10;0.50;;;0.30;;
45534;SDS011;35892;48.798;9.698;2022-12-31T11:11:44;0.95;;;0.43;;
45534;SDS011;35892;48.798;9.698;2022-12-31T11:14:41;0.60;;;0.30;;
45534;SDS011;35892;48.798;9.698;2022-12-31T11:26:16;0.50;;;0.43;;
45534;SDS011;35892;48.798;9.698;2022-12-31T11:37:09;0.80;;;0.40;;
45534;SDS011;35892;48.798;9.698;2022-12-31T11:40:07;1.08;;;0.40;;
45534;SDS011;35892;48.798;9.698;2022-12-31T11:42:56;0.30;;;0.30;;
45534;SDS011;35892;48.798;9.698;2022-12-31T11:57:26;0.50;;;0.30;;
45534;SDS011;35892;48.798;9.698;2022-12-31T12:00:13;3.63;;;1.55;;
45534;SDS011;35892;48.798;9.698;2022-12-31T12:02:54;1.60;;;0.50;;
45534;SDS011;35892;48.798;9.698;2022-12-31T12:05:31;0.50;;;0.30;;
45534;SDS011;35892;48.798;9.698;2022-12-31T12:08:00;0.32;;;0.30;;
45534;SDS011;35892;48.798;9.698;2022-12-31T12:10:28;1.42;;;0.40;;
45534;SDS011;35892;48.798;9.698;2022-12-31T12:13:11;0.93;;;0.40;;
45534;SDS011;35892;48.798;9.698;2022-12-31T12:15:59;1.80;;;0.60;;
45534;SDS011;35892;48.798;9.698;2022-12-31T12:18:49;0.88;;;0.30;;
45534;SDS011;35892;48.798;9.698;2022-12-31T12:21:23;0.70;;;0.50;;
45534;SDS011;35892;48.798;9.698;2022-12-31T12:24:13;1.30;;;0.32;;
45534;SDS011;35892;48.798;9.698;2022-12-31T12:29:23;0.93;;;0.40;;
45534;SDS011;35892;48.798;9.698;2022-12-31T12:34:29;0.85;;;0.50;;
45534;SDS011;35892;48.798;9.698;2022-12-31T12:36:58;2.33;;;0.57;;
45534;SDS011;35892;48.798;9.698;2022-12-31T12:39:31;0.82;;;0.60;;
45534;SDS011;35892;48.798;9.698;2022-12-31T12:42:06;1.35;;;0.50;;
45534;SDS011;35892;48.798;9.698;2022-12-31T12:44:37;0.93;;;0.50;;
45534;SDS011;35892;48.798;9.698;2022-12-31T12:47:07;0.75;;;0.47;;
45534;SDS011;35892;48.798;9.698;2022-12-31T12:49:41;1.42;;;0.47;;
45534;SDS011;35892;48.798;9.698;2022-12-31T13:00:55;1.15;;;0.30;;
45534;SDS011;35892;48.798;9.698;2022-12-31T13:09:35;1.50;;;0.88;;
45534;SDS011;35892;48.798;9.698;2022-12-31T13:23:25;3.72;;;1.17;;
45534;SDS011;35892;48.798;9.698;2022-12-31T13:26:15;1.52;;;0.80;;
45534;SDS011;35892;48.798;9.698;2022-12-31T13:28:52;1.25;;;0.65;;
45534;SDS011;35892;48.798;9.698;2022-12-31T13:31:24;1.23;;;0.70;;
45534;SDS011;35892;48.798;9.698;2022-12-31T13:34:06;1.15;;;0.70;;
45534;SDS011;35892;48.798;9.698;2022-12-31T13:36:38;1.45;;;0.90;;
45534;SDS011;35892;48.798;9.698;2022-12-31T13:39:18;1.08;;;0.90;;
45534;SDS011;35892;48.798;9.698;2022-12-31T13:47:20;5.00;;;1.10;;
45534;SDS011;35892;48.798;9.698;2022-12-31T13:52:56;1.33;;;0.95;;
45534;SDS011;35892;48.798;9.698;2022-12-31T13:55:32;3.13;;;0.80;;
45534;SDS011;35892;48.798;9.698;2022-12-31T14:06:42;1.90;;;0.82;;
45534;SDS011;35892;48.798;9.698;2022-12-31T14:09:26;1.58;;;0.75;;
45534;SDS011;35892;48.798;9.698;2022-12-31T14:16:57;2.00;;;0.82;;
45534;SDS011;35892;48.798;9.698;2022-12-31T14:22:29;1.48;;;0.77;;
45534;SDS011;35892;48.798;9.698;2022-12-31T14:25:15;1.55;;;0.77;;
45534;SDS011;35892;48.798;9.698;2022-12-31T14:27:54;5.35;;;1.30;;
45534;SDS011;35892;48.798;9.698;2022-12-31T14:30:24;2.83;;;0.70;;
45534;SDS011;35892;48.798;9.698;2022-12-31T14:35:58;1.38;;;0.80;;
45534;SDS011;35892;48.798;9.698;2022-12-31T14:54:46;7.30;;;3.33;;
45534;SDS011;35892;48.798;9.698;2022-12-31T14:57:24;9.70;;;4.40;;
45534;SDS011;35892;48.798;9.698;2022-12-31T15:05:26;4.07;;;1.80;;
45534;SDS011;35892;48.798;9.698;2022-12-31T15:08:05;4.68;;;2.05;;
45534;SDS011;35892;48.798;9.698;2022-12-31T15:13:35;1.65;;;1.40;;
45534;SDS011;35892;48.798;9.698;2022-12-31T15:16:51;3.65;;;1.42;;
45534;SDS011;35892;48.798;9.698;2022-12-31T15:24:31;5.63;;;1.90;;
45534;SDS011;35892;48.798;9.698;2022-12-31T15:27:03;2.95;;;1.40;;
45534;SDS011;35892;48.798;9.698;2022-12-31T15:29:48;5.07;;;1.92;;
45534;SDS011;35892;48.798;9.698;2022-12-31T15:32:18;3.85;;;1.98;;
45534;SDS011;35892;48.798;9.698;2022-12-31T15:34:59;7.38;;;1.75;;
45534;SDS011;35892;48.798;9.698;2022-12-31T15:38:02;6.45;;;2.08;;
45534;SDS011;35892;48.798;9.698;2022-12-31T15:40:45;2.63;;;1.98;;
45534;SDS011;35892;48.798;9.698;2022-12-31T15:45:50;3.83;;;1.50;;
45534;SDS011;35892;48.798;9.698;2022-12-31T15:48:31;2.17;;;1.20;;
45534;SDS011;35892;48.798;9.698;2022-12-31T15:51:20;4.45;;;1.38;;
45534;SDS011;35892;48.798;9.698;2022-12-31T15:53:53;3.13;;;1.30;;
45534;SDS011;35892;48.798;9.698;2022-12-31T15:56:44;2.85;;;1.40;;
45534;SDS011;35892;48.798;9.698;2022-12-31T15:59:13;2.72;;;1.50;;
45534;SDS011;35892;48.798;9.698;2022-12-31T16:01:42;4.43;;;2.10;;
45534;SDS011;35892;48.798;9.698;2022-12-31T16:04:28;5.35;;;2.70;;
45534;SDS011;35892;48.798;9.698;2022-12-31T16:07:00;4.43;;;3.72;;
45534;SDS011;35892;48.798;9.698;2022-12-31T16:09:29;7.50;;;4.38;;
45534;SDS011;35892;48.798;9.698;2022-12-31T16:14:53;8.55;;;2.33;;
45534;SDS011;35892;48.798;9.698;2022-12-31T16:19:54;3.78;;;2.45;;
45534;SDS011;35892;48.798;9.698;2022-12-31T16:25:01;4.03;;;2.72;;
45534;SDS011;35892;48.798;9.698;2022-12-31T16:27:49;5.88;;;3.30;;
45534;SDS011;35892;48.798;9.698;2022-12-31T16:30:19;8.27;;;3.55;;
45534;SDS011;35892;48.798;9.698;2022-12-31T16:32:47;10.23;;;6.85;;
45534;SDS011;35892;48.798;9.698;2022-12-31T16:35:34;8.45;;;5.53;;
45534;SDS011;35892;48.798;9.698;2022-12-31T16:40:33;7.40;;;4.30;;
45534;SDS011;35892;48.798;9.698;2022-12-31T16:43:00;11.10;;;9.73;;
45534;SDS011;35892;48.798;9.698;2022-12-31T16:48:08;10.75;;;7.03;;
45534;SDS011;35892;48.798;9.698;2022-12-31T16:50:46;7.22;;;4.80;;
45534;SDS011;35892;48.798;9.698;2022-12-31T16:53:18;8.57;;;5.15;;
45534;SDS011;35892;48.798;9.698;2022-12-31T16:56:06;7.78;;;5.15;;
45534;SDS011;35892;48.798;9.698;2022-12-31T16:58:40;9.30;;;5.70;;
45534;SDS011;35892;48.798;9.698;2022-12-31T17:01:21;8.82;;;4.85;;
45534;SDS011;35892;48.798;9.698;2022-12-31T17:03:54;5.65;;;3.63;;
45534;SDS011;35892;48.798;9.698;2022-12-31T17:06:26;7.90;;;3.70;;
45534;SDS011;35892;48.798;9.698;2022-12-31T17:11:56;3.47;;;2.63;;
45534;SDS011;35892;48.798;9.698;2022-12-31T17:14:33;4.20;;;2.50;;
45534;SDS011;35892;48.798;9.698;2022-12-31T17:17:21;5.03;;;3.10;;
45534;SDS011;35892;48.798;9.698;2022-12-31T17:19:57;10.25;;;5.90;;
45534;SDS011;35892;48.798;9.698;2022-12-31T17:27:30;3.90;;;2.40;;
45534;SDS011;35892;48.798;9.698;2022-12-31T17:35:48;3.10;;;2.55;;
45534;SDS011;35892;48.798;9.698;2022-12-31T17:41:32;7.18;;;3.58;;
45534;SDS011;35892;48.798;9.698;2022-12-31T17:43:36;8.93;;;6.35;;
45534;SDS011;35892;48.798;9.698;2022-12-31T17:46:13;14.77;;;9.95;;
45534;SDS011;35892;48.798;9.698;2022-12-31T17:48:42;12.57;;;7.65;;
45534;SDS011;35892;48.798;9.698;2022-12-31T17:51:11;9.35;;;5.93;;
45534;SDS011;35892;48.798;9.698;2022-12-31T17:53:38;7.68;;;4.10;;
45534;SDS011;35892;48.798;9.698;2022-12-31T17:56:09;7.18;;;4.85;;
45534;SDS011;35892;48.798;9.698;2022-12-31T17:58:47;8.60;;;4.70;;
45534;SDS011;35892;48.798;9.698;2022-12-31T18:01:19;6.50;;;4.90;;
45534;SDS011;35892;48.798;9.698;2022-12-31T18:03:47;6.05;;;4.00;;
45534;SDS011;35892;48.798;9.698;2022-12-31T18:06:17;9.68;;;4.38;;
45534;SDS011;35892;48.798;9.698;2022-12-31T18:08:45;4.95;;;3.60;;
45534;SDS011;35892;48.798;9.698;2022-12-31T18:11:16;4.90;;;3.15;;
45534;SDS011;35892;48.798;9.698;2022-12-31T18:13:44;7.95;;;3.72;;
45534;SDS011;35892;48.798;9.698;2022-12-31T18:16:14;6.70;;;4.30;;
45534;SDS011;35892;48.798;9.698;2022-12-31T18:18:44;5.07;;;3.97;;
45534;SDS011;35892;48.798;9.698;2022-12-31T18:21:19;6.82;;;4.65;;
45534;SDS011;35892;48.798;9.698;2022-12-31T18:23:50;9.55;;;6.03;;
45534;SDS011;35892;48.798;9.698;2022-12-31T18:26:18;9.60;;;5.35;;
45534;SDS011;35892;48.798;9.698;2022-12-31T18:28:47;10.57;;;6.22;;
45534;SDS011;35892;48.798;9.698;2022-12-31T18:31:23;9.00;;;5.57;;
45534;SDS011;35892;48.798;9.698;2022-12-31T18:33:57;10.63;;;7.07;;
45534;SDS011;35892;48.798;9.698;2022-12-31T18:36:27;15.63;;;10.90;;
45534;SDS011;35892;48.798;9.698;2022-12-31T18:38:56;36.97;;;28.88;;
45534;SDS011;35892;48.798;9.698;2022-12-31T18:41:25;21.45;;;17.60;;
45534;SDS011;35892;48.798;9.698;2022-12-31T18:44:03;15.27;;;11.60;;
45534;SDS011;35892;48.798;9.698;2022-12-31T18:46:30;18.20;;;12.02;;
45534;SDS011;35892;48.798;9.698;2022-12-31T18:48:56;12.63;;;7.65;;
45534;SDS011;35892;48.798;9.698;2022-12-31T18:51:23;13.63;;;7.55;;
45534;SDS011;35892;48.798;9.698;2022-12-31T18:53:57;9.05;;;4.78;;
45534;SDS011;35892;48.798;9.698;2022-12-31T18:56:26;14.65;;;7.65;;
45534;SDS011;35892;48.798;9.698;2022-12-31T18:58:53;17.30;;;12.18;;
45534;SDS011;35892;48.798;9.698;2022-12-31T19:03:58;57.80;;;41.40;;
45534;SDS011;35892;48.798;9.698;2022-12-31T19:06:28;86.30;;;60.30;;
45534;SDS011;35892;48.798;9.698;2022-12-31T19:08:58;87.53;;;67.30;;
45534;SDS011;35892;48.798;9.698;2022-12-31T19:11:29;75.55;;;55.22;;
45534;SDS011;35892;48.798;9.698;2022-12-31T19:13:58;118.50;;;94.72;;
45534;SDS011;35892;48.798;9.698;2022-12-31T19:16:27;70.88;;;54.03;;
45534;SDS011;35892;48.798;9.698;2022-12-31T19:18:53;37.38;;;26.42;;
45534;SDS011;35892;48.798;9.698;2022-12-31T19:21:21;80.30;;;63.58;;
45534;SDS011;35892;48.798;9.698;2022-12-31T19:23:49;63.10;;;39.72;;
45534;SDS011;35892;48.798;9.698;2022-12-31T19:26:17;44.40;;;29.55;;
45534;SDS011;35892;48.798;9.698;2022-12-31T19:28:46;41.97;;;28.25;;
45534;SDS011;35892;48.798;9.698;2022-12-31T19:31:13;30.48;;;23.10;;
45534;SDS011;35892;48.798;9.698;2022-12-31T19:33:45;34.55;;;28.30;;
45534;SDS011;35892;48.798;9.698;2022-12-31T19:36:12;14.13;;;10.73;;
45534;SDS011;35892;48.798;9.698;2022-12-31T19:38:47;23.60;;;16.20;;
45534;SDS011;35892;48.798;9.698;2022-12-31T19:41:19;16.92;;;11.35;;
45534;SDS011;35892;48.798;9.698;2022-12-31T19:43:46;16.20;;;12.43;;
45534;SDS011;35892;48.798;9.698;2022-12-31T19:46:17;18.73;;;12.80;;
45534;SDS011;35892;48.798;9.698;2022-12-31T19:48:44;18.83;;;14.80;;
45534;SDS011;35892;48.798;9.698;2022-12-31T19:51:15;17.58;;;12.65;;
45534;SDS011;35892;48.798;9.698;2022-12-31T19:53:47;13.77;;;10.05;;
45534;SDS011;35892;48.798;9.698;2022-12-31T19:56:15;13.57;;;8.88;;
45534;SDS011;35892;48.798;9.698;2022-12-31T19:58:44;14.60;;;10.90;;
45534;SDS011;35892;48.798;9.698;2022-12-31T20:01:16;12.98;;;9.05;;
45534;SDS011;35892;48.798;9.698;2022-12-31T20:03:47;13.13;;;9.80;;
45534;SDS011;35892;48.798;9.698;2022-12-31T20:06:14;14.25;;;10.50;;
45534;SDS011;35892;48.798;9.698;2022-12-31T20:08:45;12.75;;;8.85;;
45534;SDS011;35892;48.798;9.698;2022-12-31T20:11:15;12.98;;;10.35;;
45534;SDS011;35892;48.798;9.698;2022-12-31T20:13:47;20.67;;;15.85;;
45534;SDS011;35892;48.798;9.698;2022-12-31T20:16:20;19.30;;;14.88;;
45534;SDS011;35892;48.798;9.698;2022-12-31T20:18:52;16.50;;;10.13;;
45534;SDS011;35892;48.798;9.698;2022-12-31T20:21:23;9.95;;;6.97;;
45534;SDS011;35892;48.798;9.698;2022-12-31T20:23:53;7.88;;;5.57;;
45534;SDS011;35892;48.798;9.698;2022-12-31T20:26:21;8.77;;;7.00;;
45534;SDS011;35892;48.798;9.698;2022-12-31T20:28:49;12.07;;;8.43;;
45534;SDS011;35892;48.798;9.698;2022-12-31T20:31:17;11.18;;;8.15;;
45534;SDS011;35892;48.798;9.698;2022-12-31T20:33:46;11.23;;;9.35;;
45534;SDS011;35892;48.798;9.698;2022-12-31T20:36:14;35.05;;;26.45;;
45534;SDS011;35892;48.798;9.698;2022-12-31T20:38:46;19.08;;;16.33;;
45534;SDS011;35892;48.798;9.698;2022-12-31T20:41:14;28.65;;;22.27;;
45534;SDS011;35892;48.798;9.698;2022-12-31T20:43:43;24.67;;;21.02;;
45534;SDS011;35892;48.798;9.698;2022-12-31T20:46:22;29.42;;;25.75;;
45534;SDS011;35892;48.798;9.698;2022-12-31T20:48:51;23.83;;;20.98;;
45534;SDS011;35892;48.798;9.698;2022-12-31T20:51:20;20.48;;;17.05;;
45534;SDS011;35892;48.798;9.698;2022-12-31T20:53:54;19.75;;;15.80;;
45534;SDS011;35892;48.798;9.698;2022-12-31T20:56:23;15.05;;;11.85;;
45534;SDS011;35892;48.798;9.698;2022-12-31T20:58:52;18.25;;;12.70;;